Data for 07/06/2007

Time Sea-Level Adjusted Pressure Absolute Pressure Temperature Relative Humidity Dew Point   
(mb) (inHg) (mb) (inHg) (C) (F) (%) (C) (F)
00:05 1021 30.15 851 25.13 25.4 77.6 34 8.6 47.4
00:10 1021 30.15 851 25.13 25.3 77.6 34 8.5 47.3
00:15 1021 30.15 851 25.13 25.3 77.6 34 8.5 47.4
00:20 1021 30.15 851 25.13 25.3 77.6 34 8.4 47.2
00:25 1021 30.15 851 25.13 25.3 77.6 34 8.6 47.4
00:30 1021 30.15 851 25.13 25.3 77.6 34 8.5 47.3
00:35 1021 30.15 851 25.13 25.3 77.5 34 8.4 47.2
00:40 1021 30.15 850 25.1 25.1 77.2 34 8.5 47.3
00:45 1021 30.15 851 25.13 25 77 34 8.4 47.2
00:50 1021 30.15 850 25.1 25.1 77.1 34 8.4 47.1
00:55 1021 30.15 850 25.1 25 77 34 8.5 47.2
01:00 1021 30.15 850 25.1 24.9 76.8 35 8.6 47.4
01:05 1021 30.15 850 25.1 24.6 76.3 36 8.7 47.6
01:10 1021 30.15 850 25.1 24.5 76 36 8.5 47.3
01:15 1021 30.15 850 25.1 24.4 76 36 8.6 47.5
01:20 1021 30.15 850 25.1 24.5 76.2 36 8.6 47.6
01:25 1021 30.15 850 25.1 24.3 75.7 37 8.9 48.1
01:30 1021 30.15 850 25.1 24.2 75.6 37 8.6 47.6
01:35 1021 30.15 851 25.13 24.3 75.8 37 8.7 47.7
01:40 1021 30.15 850 25.1 24.3 75.8 36 8.4 47.2
01:45 1021 30.15 851 25.13 24.5 76.1 35 8.4 47.1
01:50 1021 30.15 850 25.1 24.7 76.4 35 8.3 46.9
01:55 1021 30.15 850 25.1 24.8 76.6 35 8.3 47
02:00 1021 30.15 850 25.1 24.8 76.6 35 8.3 47
02:05 1021 30.15 850 25.1 24.6 76.3 35 8.5 47.2
02:10 1021 30.15 850 25.1 24.5 76.1 36 8.6 47.5
02:15 1021 30.15 850 25.1 24.4 75.9 36 8.4 47.1
02:20 1021 30.15 850 25.1 24.3 75.7 36 8.5 47.4
02:25 1021 30.15 850 25.1 24.2 75.5 37 8.6 47.5
02:30 1021 30.15 850 25.1 24.2 75.6 36 8.5 47.3
02:35 1021 30.15 850 25.1 24.2 75.5 37 8.9 48
02:40 1021 30.15 850 25.1 23.7 74.7 39 9 48.3
02:45 1021 30.15 850 25.1 23.4 74.1 39 9 48.2
02:50 1021 30.15 850 25.1 23.1 73.6 40 8.9 48
02:55 1021 30.15 850 25.1 23 73.3 41 9 48.3
03:00 1021 30.15 850 25.1 22.9 73.2 40 8.8 47.8
03:05 1021 30.15 850 25.1 23.1 73.5 40 8.9 48.1
03:10 1021 30.15 850 25.1 22.9 73.2 40 8.9 48
03:15 1021 30.15 850 25.1 22.8 73.1 40 8.8 47.9
03:20 1021 30.15 850 25.1 22.8 73 41 9 48.3
03:25 1021 30.15 850 25.1 22.7 72.8 41 8.8 47.9
03:30 1021 30.15 850 25.1 22.6 72.8 41 8.9 48
03:35 1021 30.15 850 25.1 22.5 72.6 41 8.8 47.9
03:40 1021 30.15 850 25.1 22.6 72.7 41 8.7 47.7
03:45 1021 30.15 850 25.1 22.8 73.1 40 8.8 47.8
03:50 1021 30.15 850 25.1 22.8 73.1 40 8.8 47.9
03:55 1021 30.15 850 25.1 22.7 72.8 41 9 48.3
04:00 1021 30.15 850 25.1 22.5 72.4 42 9.1 48.3
04:05 1021 30.15 850 25.1 22.4 72.2 42 9.1 48.4
04:10 1021 30.15 850 25.1 22.2 72 43 9.2 48.6
04:15 1021 30.15 850 25.1 22 71.6 43 9.1 48.4
04:20 1021 30.15 850 25.1 21.9 71.3 46 9.9 49.9
04:25 1021 30.15 850 25.1 21.5 70.7 45 9.2 48.6
04:30 1021 30.15 850 25.1 21.1 70 45 8.9 48
04:35 1021 30.15 850 25.1 21.5 70.6 44 8.8 47.8
04:40 1021 30.15 850 25.1 21.6 70.9 44 9.1 48.3
04:45 1021 30.15 850 25.1 21.2 70.1 46 9.2 48.5
04:50 1021 30.15 850 25.1 20.7 69.3 47 9 48.2
04:55 1021 30.15 850 25.1 20.4 68.8 48 9.1 48.4
05:00 1021 30.15 850 25.1 20.4 68.7 49 9.6 49.2
05:05 1021 30.15 850 25.1 20.1 68.3 48 9 48.3
05:10 1021 30.15 850 25.1 20.2 68.4 48 8.9 48
05:15 1021 30.15 850 25.1 20.4 68.7 47 8.8 47.8
05:20 1021 30.15 850 25.1 20.5 68.8 46 8.6 47.5
05:25 1021 30.15 850 25.1 20.6 69 45 8.4 47.1
05:30 1021 30.15 850 25.1 20.7 69.2 45 8.4 47.1
05:35 1021 30.15 850 25.1 20.7 69.2 45 8.5 47.3
05:40 1021 30.15 850 25.1 20.4 68.7 46 8.5 47.3
05:45 1021 30.15 850 25.1 20.3 68.6 45 8.3 47
05:50 1021 30.15 850 25.1 20.4 68.7 45 8.1 46.7
05:55 1021 30.15 850 25.1 20.5 68.9 44 8.2 46.7
06:00 1021 30.15 850 25.1 20.7 69.2 43 7.7 45.9
06:05 1021 30.15 850 25.1 21.1 70 46 9.2 48.5
06:10 1021 30.15 850 25.1 20.9 69.6 44 8.3 46.9
06:15 1021 30.15 850 25.1 20.7 69.2 46 8.8 47.9
06:20 1021 30.15 851 25.13 20.6 69.1 46 8.7 47.7
06:25 1021 30.15 851 25.13 20.5 68.9 44 8.1 46.6
06:30 1021 30.15 851 25.13 20.4 68.7 46 8.5 47.3
06:35 1021 30.15 851 25.13 20.2 68.3 46 8.3 47
06:40 1021 30.15 851 25.13 20.1 68.1 48 8.7 47.7
06:45 1021 30.15 851 25.13 19.9 67.8 52 9.9 49.8
06:50 1021 30.15 851 25.13 19.9 67.8 48 8.6 47.5
06:55 1021 30.15 851 25.13 19.8 67.6 49 8.8 47.8
07:00 1021 30.15 851 25.13 20 68 48 8.8 47.8
07:05 1021 30.15 851 25.13 20.3 68.5 47 8.9 48
07:10 1021 30.15 851 25.13 20.5 68.9 47 9.1 48.4
07:15 1021 30.15 851 25.13 20.5 68.9 49 9.4 49
07:20 1021 30.15 851 25.13 20.4 68.7 50 9.7 49.5
07:25 1021 30.15 851 25.13 20.4 68.7 50 9.6 49.3
07:30 1021 30.15 851 25.13 20.9 69.6 51 10.6 51
07:35 1021 30.15 851 25.13 21.2 70.2 47 9.7 49.5
07:40 1021 30.15 851 25.13 21.5 70.8 46 9.7 49.5
07:45 1021 30.15 851 25.13 22.1 71.8 43 9.3 48.7
07:50 1021 30.15 851 25.13 22.5 72.4 43 9.3 48.8
07:55 1021 30.15 851 25.13 22.8 73 42 9.3 48.8
08:00 1021 30.15 851 25.13 23 73.4 42 9.5 49.2
08:05 1021 30.15 851 25.13 23.6 74.5 41 9.7 49.4
08:10 1021 30.15 851 25.13 24.4 76 39 9.8 49.7
08:15 1021 30.15 851 25.13 24.8 76.6 37 9.5 49.1
08:20 1021 30.15 851 25.13 25.3 77.5 37 9.7 49.5
08:25 1021 30.15 851 25.13 25.5 77.8 35 9.3 48.7
08:30 1021 30.15 851 25.13 25.3 77.5 38 10.3 50.5
08:35 1021 30.15 850 25.1 25.4 77.8 39 10.7 51.3
08:40 1021 30.15 850 25.1 25.8 78.5 36 9.7 49.4
08:45 1021 30.15 850 25.1 26.3 79.3 33 8.9 48
08:50 1021 30.15 850 25.1 26.6 80 35 10 50
08:55 1021 30.15 850 25.1 26.6 79.9 34 9.9 49.8
09:00 1021 30.15 850 25.1 26.9 80.5 34 10 49.9
09:05 1021 30.15 850 25.1 27 80.7 32 9.4 48.9
09:10 1021 30.15 850 25.1 27.2 80.9 34 10.2 50.3
09:15 1021 30.15 850 25.1 27 80.7 35 10.5 50.9
09:20 1021 30.15 850 25.1 26.3 79.4 38 11.2 52.1
09:25 1021 30.15 850 25.1 25.6 78.1 41 11.5 52.7
09:30 1021 30.15 850 25.1 25.1 77.3 41 11.2 52.1
09:35 1021 30.15 850 25.1 24.8 76.6 42 11.3 52.4
09:40 1021 30.15 850 25.1 25.3 77.6 41 11.3 52.4
09:45 1021 30.15 850 25.1 25.6 78.1 41 11.6 52.9
09:50 1021 30.15 850 25.1 26.2 79.1 39 11.4 52.6
09:55 1021 30.15 850 25.1 26.5 79.7 39 11.7 53
10:00 1021 30.15 850 25.1 26.4 79.5 38 11.1 52.1
10:05 1021 30.15 850 25.1 26.8 80.2 36 10.6 51
10:10 1021 30.15 850 25.1 27.1 80.7 36 10.8 51.4
10:15 1021 30.15 850 25.1 27.8 82.1 34 10.7 51.2
10:20 1021 30.15 850 25.1 28.4 83.2 33 10.9 51.7
10:25 1021 30.15 850 25.1 28.9 84 32 10.9 51.6
10:30 1021 30.15 850 25.1 29.4 84.8 30 10.4 50.7
10:35 1021 30.15 850 25.1 29.3 84.8 31 10.7 51.2
10:40 1021 30.15 850 25.1 29.8 85.6 30 10.7 51.3
10:45 1021 30.15 850 25.1 30.5 86.9 29 10.6 51.1
10:50 1021 30.15 850 25.1 30.9 87.6 30 11.7 53
10:55 1020 30.12 850 25.1 31.4 88.5 29 11.7 53.1
11:00 1020 30.12 850 25.1 31.7 89 28 11.2 52.1
11:05 1020 30.12 849 25.07 32.4 90.2 28 12 53.5
11:10 1020 30.12 849 25.07 32.4 90.4 28 12.1 53.8
11:15 1020 30.12 849 25.07 32.2 90 27 11.5 52.6
11:20 1020 30.12 849 25.07 32.4 90.4 27 11.6 53
11:25 1020 30.12 849 25.07 32.1 89.7 28 11.6 52.9
11:30 1020 30.12 849 25.07 32.9 91.3 27 11.6 52.9
11:35 1020 30.12 849 25.07 33.5 92.2 27 12 53.7
11:40 1020 30.12 849 25.07 32.9 91.1 27 11.8 53.2
11:45 1020 30.12 849 25.07 33.3 91.9 27 12.4 54.3
11:50 1020 30.12 849 25.07 33.1 91.6 24 10.4 50.8
11:55 1020 30.12 849 25.07 33.6 92.4 25 11.1 52
12:00 1020 30.12 849 25.07 33.4 92.1 25 11.1 52
12:05 1020 30.12 849 25.07 33.7 92.6 23 9.9 49.8
12:10 1020 30.12 849 25.07 33.6 92.5 23 10.1 50.3
12:15 1020 30.12 849 25.07 34.2 93.6 23 10.4 50.7
12:20 1020 30.12 849 25.07 34.3 93.7 24 11.1 52.1
12:25 1020 30.12 849 25.07 33.7 92.7 24 11 51.9
12:30 1020 30.12 849 25.07 34.3 93.7 22 9.8 49.6
12:35 1020 30.12 849 25.07 35.2 95.4 20 9.4 48.9
12:40 1019 30.09 849 25.07 35.4 95.7 19 8.9 48
12:45 1019 30.09 849 25.07 35 95 18 7.8 46
12:50 1019 30.09 849 25.07 35.7 96.2 18 8.3 46.9
12:55 1019 30.09 849 25.07 36.1 97.1 18 8.9 48
13:00 1019 30.09 848 25.04 35.4 95.7 18 8.1 46.6
13:05 1019 30.09 848 25.04 36 96.8 17 7.9 46.2
13:10 1019 30.09 848 25.04 36.1 97.1 18 8.7 47.6
13:15 1019 30.09 848 25.04 36.6 97.8 16 7.1 44.7
13:20 1019 30.09 848 25.04 36.6 98 16 7.1 44.8
13:25 1019 30.09 848 25.04 35.6 96.1 16 6.7 44.1
13:30 1019 30.09 848 25.04 36.2 97.2 17 7.7 45.9
13:35 1019 30.09 848 25.04 37.1 98.8 16 7.4 45.3
13:40 1019 30.09 848 25.04 36.3 97.4 16 6.8 44.2
13:45 1019 30.09 848 25.04 35.9 96.7 16 6.2 43.2
13:50 1019 30.09 848 25.04 36 96.8 15 6.2 43.1
13:55 1019 30.09 848 25.04 37.2 99 14 5.8 42.4
14:00 1019 30.09 848 25.04 37.7 99.8 13 5.2 41.4
14:05 1018 30.06 848 25.04 37.7 99.8 13 5.5 41.8
14:10 1018 30.06 848 25.04 37.5 99.6 14 5.5 42
14:15 1018 30.06 848 25.04 35.8 96.4 14 4.1 39.5
14:20 1018 30.06 848 25.04 34.8 94.7 14 4 39.1
14:25 1018 30.06 848 25.04 34.7 94.5 14 3.6 38.5
14:30 1018 30.06 848 25.04 34.9 94.8 14 3.5 38.4
14:35 1018 30.06 848 25.04 34.9 94.9 13 3.2 37.8
14:40 1018 30.06 848 25.04 34.9 94.9 14 4.3 39.7
14:45 1018 30.06 847 25.01 34.5 94 14 3.1 37.6
14:50 1018 30.06 847 25.01 34.9 94.9 14 4.1 39.4
14:55 1018 30.06 847 25.01 36 96.8 13 3.5 38.4
15:00 1018 30.06 847 25.01 36.6 97.8 14 4.9 40.8
15:05 1018 30.06 847 25.01 36.5 97.6 13 4.1 39.5
15:10 1018 30.06 847 25.01 36.6 97.8 13 3.8 38.8
15:15 1018 30.06 847 25.01 36.1 97 13 3.4 38.2
15:20 1018 30.06 847 25.01 36.1 96.9 13 3.9 39.1
15:25 1018 30.06 847 25.01 36.6 97.8 13 4.5 40.1
15:30 1018 30.06 847 25.01 36.6 97.9 13 4.1 39.4
15:35 1018 30.06 847 25.01 36.3 97.3 13 3.9 39.1
15:40 1018 30.06 847 25.01 36.6 97.9 13 3.9 38.9
15:45 1018 30.06 847 25.01 36.4 97.5 12 3.1 37.5
15:50 1018 30.06 847 25.01 36.1 97 13 3.3 38
15:55 1017 30.03 847 25.01 36.7 98.1 13 4.3 39.8
16:00 1017 30.03 847 25.01 36.2 97.1 13 4.3 39.8
16:05 1017 30.03 846 24.98 35.8 96.4 13 4 39.2
16:10 1017 30.03 846 24.98 35.9 96.5 14 4.8 40.7
16:15 1017 30.03 846 24.98 36.2 97.2 13 3.4 38.2
16:20 1017 30.03 846 24.98 36.3 97.3 13 3.6 38.4
16:25 1017 30.03 846 24.98 36.2 97.2 13 4.3 39.8
16:30 1017 30.03 846 24.98 36.3 97.4 13 3.7 38.7
16:35 1017 30.03 846 24.98 36.2 97.2 14 5.1 41.2
16:40 1017 30.03 846 24.98 36.1 97 13 3.9 39
16:45 1017 30.03 846 24.98 36.3 97.3 13 3.8 38.9
16:50 1017 30.03 846 24.98 35.8 96.4 13 4.1 39.4
16:55 1016 30 846 24.98 36.1 97 16 6.5 43.7
17:00 1016 30 846 24.98 35.9 96.6 14 4.8 40.6
17:05 1016 30 846 24.98 35.2 95.3 15 5 41.1
17:10 1016 30 846 24.98 35.2 95.4 15 4.8 40.7
17:15 1016 30 846 24.98 35.3 95.5 14 4.6 40.4
17:20 1016 30 845 24.95 34.8 94.7 15 5.3 41.5
17:25 1016 30 845 24.95 34.5 94.1 17 6.4 43.5
17:30 1016 30 845 24.95 34.6 94.2 16 5.2 41.3
17:35 1016 30 845 24.95 34.4 93.9 16 5.3 41.5
17:40 1016 30 845 24.95 34.3 93.7 16 5.1 41.3
17:45 1016 30 845 24.95 34.6 94.4 17 6.6 44
17:50 1016 30 845 24.95 35.3 95.5 15 5.4 41.7
17:55 1016 30 845 24.95 35.3 95.5 16 5.7 42.3
18:00 1016 30 845 24.95 35.1 95.1 18 7.3 45.1
18:05 1016 30 845 24.95 34.9 94.8 12 1.9 35.5
18:10 1016 30 845 24.95 35.3 95.6 14 4 39.2
18:15 1016 30 845 24.95 35.7 96.3 14 5.1 41.1
18:20 1015 29.97 845 24.95 35.7 96.3 16 6.4 43.6
18:25 1015 29.97 845 24.95 35.3 95.5 16 6.4 43.6
18:30 1015 29.97 845 24.95 33.8 92.9 21 8.8 47.9
18:35 1015 29.97 845 24.95 33 91.3 22 9.1 48.4
18:40 1015 29.97 845 24.95 32.5 90.5 22 8.4 47.1
18:45 1015 29.97 845 24.95 31.8 89.3 25 9.5 49.2
18:50 1015 29.97 845 24.95 30.9 87.6 28 10.7 51.3
18:55 1015 29.97 844 24.92 29 84.2 29 9.3 48.8
19:00 1015 29.97 845 24.95 28.5 83.3 29 8.8 47.8
19:05 1015 29.97 845 24.95 28 82.3 34 10.9 51.6
19:10 1015 29.97 845 24.95 26.9 80.5 35 10.7 51.2
19:15 1016 30 845 24.95 24 75.2 52 13.7 56.7
19:20 1017 30.03 846 24.98 21 69.8 61 13.2 55.8
19:25 1017 30.03 846 24.98 21.2 70.1 54 11.5 52.7
19:30 1016 30 846 24.98 21.2 70.2 55 12 53.6
19:35 1016 30 845 24.95 23.4 74.2 43 10.3 50.6
19:40 1016 30 845 24.95 23.9 75 35 7.7 45.9
19:45 1016 30 845 24.95 25.6 78.1 35 9.2 48.5
19:50 1016 30 846 24.98 25 77 37 9.4 48.9
19:55 1016 30 846 24.98 25.7 78.2 32 8.2 46.8
20:00 1017 30.03 846 24.98 25.7 78.3 33 8.6 47.5
20:05 1017 30.03 846 24.98 25.7 78.3 31 7.6 45.6
20:10 1017 30.03 846 24.98 26.2 79.1 32 8.5 47.3
20:15 1017 30.03 846 24.98 25.2 77.4 37 9.6 49.3
20:20 1017 30.03 846 24.98 25 77.1 34 8.3 47
20:25 1017 30.03 846 24.98 25.6 78 33 8.6 47.4
20:30 1017 30.03 846 24.98 26.1 78.9 27 5.8 42.4
20:35 1017 30.03 846 24.98 26.9 80.4 34 10.1 50.1
20:40 1017 30.03 846 24.98 25 76.9 35 8.6 47.4
20:45 1017 30.03 846 24.98 24.5 76 37 9 48.1
20:50 1017 30.03 846 24.98 24.5 76 43 11.2 52.1
20:55 1017 30.03 847 25.01 24.4 76 34 8 46.4
21:00 1017 30.03 847 25.01 24.2 75.6 42 10.6 51
21:05 1017 30.03 847 25.01 24.2 75.6 34 7.5 45.4
21:10 1018 30.06 847 25.01 25.2 77.4 33 8.2 46.8
21:15 1018 30.06 847 25.01 25.1 77.3 34 8.3 47
21:20 1018 30.06 847 25.01 24.8 76.7 34 8.3 46.9
21:25 1018 30.06 847 25.01 24.6 76.3 35 8.4 47.1
21:30 1018 30.06 847 25.01 24.8 76.6 34 8.2 46.8
21:35 1018 30.06 847 25.01 25.4 77.8 30 6.8 44.2
21:40 1018 30.06 847 25.01 25.9 78.6 30 7.1 44.7
21:45 1018 30.06 847 25.01 25.9 78.7 30 7.1 44.8
21:50 1018 30.06 847 25.01 25.8 78.5 30 7.4 45.3
21:55 1018 30.06 847 25.01 25.4 77.7 33 8.1 46.5
22:00 1018 30.06 847 25.01 25 76.9 33 7.9 46.3
22:05 1018 30.06 847 25.01 24.8 76.7 32 7.1 44.8
22:10 1018 30.06 847 25.01 25.1 77.1 32 7.5 45.5
22:15 1018 30.06 847 25.01 24.9 76.8 32 7.5 45.5
22:20 1018 30.06 847 25.01 24.7 76.5 32 7.4 45.2
22:25 1018 30.06 847 25.01 24.6 76.3 33 7.5 45.6
22:30 1018 30.06 847 25.01 24.3 75.8 35 7.9 46.3
22:35 1018 30.06 847 25.01 23.9 75.1 34 7.4 45.3
22:40 1018 30.06 847 25.01 24.2 75.5 33 7.3 45.1
22:45 1018 30.06 847 25.01 24.3 75.8 33 7.3 45.2
22:50 1018 30.06 847 25.01 24.2 75.6 33 7.3 45.1
22:55 1018 30.06 847 25.01 24.2 75.5 34 7.4 45.4
23:00 1018 30.06 847 25.01 24 75.2 35 7.6 45.7
23:05 1018 30.06 847 25.01 23.9 75 34 7.3 45.2
23:10 1018 30.06 847 25.01 24 75.2 34 7.4 45.4
23:15 1018 30.06 847 25.01 24 75.2 35 8 46.4
23:20 1018 30.06 847 25.01 24.1 75.5 31 6.2 43.1
23:25 1018 30.06 847 25.01 24.4 75.9 33 7.3 45.2
23:30 1019 30.09 848 25.04 24.3 75.7 34 7.4 45.4
23:35 1019 30.09 848 25.04 23.8 74.9 38 8.9 48
23:40 1019 30.09 848 25.04 23.2 73.7 40 9 48.3
23:45 1019 30.09 848 25.04 22.9 73.3 41 9 48.2
23:50 1019 30.09 848 25.04 22 71.6 47 10.5 50.9
23:55 1019 30.09 848 25.04 21.2 70.2 50 10.5 50.9
24:00 1019 30.09 848 25.04 21.2 70.2 45 9.1 48.3